Flight Track Log - Related Links

Times and Time Zones

All times are in EDT time to prevent confusion due to time zone crossing. See the CES2219 flight status page for this flight to view local times or setup timezone preferences in your user account.

Time Position Orientation Groundspeed Altitude Reporting Facility
EDT Latitude Longitude Course Direction KTS MPH feet Rate Location/Type
Fri 04:49:27 AM 31.1569 121.7880 344° North 142 163 1,300  Level FlightAware ADS-B (ZSSL)
Fri 04:49:43 AM 31.1669 121.7846 344° North 139 160 2,000 2,323 Climbing FlightAware ADS-B (ZSSL)
Fri 04:49:58 AM 31.1761 121.7812 344° North 137 158 2,500 2,000 Climbing FlightAware ADS-B (ZSSL)
Fri 04:50:13 AM 31.1854 121.7779 343° North 140 161 3,000 1,714 Climbing FlightAware ADS-B (ZSSL)
Fri 04:50:33 AM 31.1970 121.7733 342° North 155 178 3,500 1,371 Climbing FlightAware ADS-B (ZSSL)
Fri 04:50:48 AM 31.2070 121.7694 342° North 176 203 3,800 1,400 Climbing FlightAware ADS-B (ZSSL)
Fri 04:51:03 AM 31.2223 121.7636 343° North 195 224 4,200 1,400 Climbing FlightAware ADS-B (ZSSL)
Fri 04:51:18 AM 31.2343 121.7591 343° North 215 247 4,500 1,742 Climbing FlightAware ADS-B (ZSSL)
Fri 04:51:34 AM 31.2512 121.7529 343° North 239 275 5,100 3,200 Climbing FlightAware ADS-B (ZSSL)
Fri 04:52:18 AM 31.2999 121.7349 343° North 247 284 7,700 3,458 Climbing FlightAware ADS-B (ZSSL)
Fri 04:52:33 AM 31.3169 121.7287 343° North 253 291 8,500 2,800 Climbing FlightAware ADS-B (ZSSL)
Fri 04:52:48 AM 31.3347 121.7220 343° North 269 310 9,100 2,400 Climbing FlightAware ADS-B (ZSSL)
Fri 04:53:03 AM 31.3513 121.7157 343° North 279 321 9,700 2,240 Climbing FlightAware ADS-B (ZSSL)
Fri 04:55:18 AM 31.5417 121.6336 317° Northwest 347 399 14,700 2,050 Climbing FlightAware ADS-B
Fri 04:58:22 AM 31.7632 121.3740 315° West 386 444 20,600 569 Climbing FlightAware ADS-B
Fri 05:22:23 AM 31.8117 118.3196 262° West 434 499 30,100 378 Climbing FlightAware ADS-B
Fri 05:23:28 AM 31.7897 118.1669 257° West 434 499 30,100  Level FlightAware ADS-B
Fri 05:25:00 AM 31.8554 117.9904 294° West  Level Estimated
Fri 05:26:00 AM 31.8981 117.8752 294° West  Level Estimated
Fri 05:27:00 AM 31.9407 117.7599 294° West  Level Estimated
Fri 05:28:00 AM 31.9832 117.6445 293° West  Level Estimated
Fri 05:29:00 AM 32.0256 117.5290 293° West  Level Estimated
Fri 05:30:00 AM 32.0678 117.4134 293° West  Level Estimated
Fri 05:31:00 AM 32.1100 117.2977 293° West  Level Estimated
Fri 05:32:00 AM 32.1521 117.1818 293° West  Level Estimated
Fri 05:33:00 AM 32.1940 117.0659 293° West  Level Estimated
Fri 05:34:00 AM 32.2359 116.9498 293° West  Level Estimated
Fri 05:35:00 AM 32.2777 116.8337 293° West  Level Estimated
Fri 05:36:00 AM 32.3193 116.7174 293° West  Level Estimated
Fri 05:37:00 AM 32.3608 116.6010 293° West  Level Estimated
Fri 05:38:00 AM 32.4023 116.4846 293° West  Level Estimated
Fri 05:39:00 AM 32.4436 116.3680 293° West  Level Estimated
Fri 05:40:00 AM 32.4848 116.2513 293° West  Level Estimated
Fri 05:41:00 AM 32.5259 116.1345 293° West  Level Estimated
Fri 05:42:00 AM 32.5669 116.0176 293° West  Level Estimated
Fri 05:43:00 AM 32.6078 115.9006 293° West  Level Estimated
Fri 05:44:00 AM 32.6486 115.7835 292° West  Level Estimated
Fri 05:45:00 AM 32.6893 115.6662 292° West  Level Estimated
Fri 05:46:00 AM 32.7299 115.5489 292° West  Level Estimated
Fri 05:47:00 AM 32.7703 115.4315 292° West  Level Estimated
Fri 05:48:00 AM 32.8106 115.3139 292° West  Level Estimated
Fri 05:49:00 AM 32.8509 115.1963 292° West  Level Estimated
Fri 05:50:00 AM 32.8910 115.0785 292° West  Level Estimated
Fri 05:51:00 AM 32.9310 114.9606 292° West  Level Estimated
Fri 05:52:00 AM 32.9709 114.8427 292° West  Level Estimated
Fri 05:53:00 AM 33.0107 114.7246 292° West  Level Estimated
Fri 05:54:00 AM 33.0504 114.6064 292° West  Level Estimated
Fri 05:55:00 AM 33.0900 114.4881 292° West  Level Estimated
Fri 05:56:00 AM 33.1295 114.3697 292° West  Level Estimated
Fri 05:57:00 AM 33.1688 114.2512 292° West  Level Estimated
Fri 05:58:00 AM 33.2080 114.1326 292° West  Level Estimated
Fri 05:59:00 AM 33.2472 114.0139 292° West  Level Estimated
Fri 06:00:00 AM 33.2862 113.8951 291° West  Level Estimated
Fri 06:01:00 AM 33.3251 113.7762 291° West  Level Estimated
Fri 06:02:00 AM 33.3638 113.6571 291° West  Level Estimated
Fri 06:03:00 AM 33.4025 113.5380 291° West  Level Estimated
Fri 06:04:00 AM 33.4411 113.4187 291° West  Level Estimated
Fri 06:05:00 AM 33.4795 113.2994 291° West  Level Estimated
Fri 06:06:00 AM 33.5178 113.1799 291° West  Level Estimated
Fri 06:07:00 AM 33.5561 113.0604 291° West  Level Estimated
Fri 06:08:00 AM 33.5942 112.9407 291° West  Level Estimated
Fri 06:09:00 AM 33.6321 112.8209 291° West  Level Estimated
Fri 06:10:00 AM 33.6700 112.7010 291° West  Level Estimated
Fri 06:11:00 AM 33.7078 112.5810 291° West  Level Estimated
Fri 06:12:00 AM 33.7454 112.4610 291° West  Level Estimated
Fri 06:13:00 AM 33.7829 112.3408 291° West  Level Estimated
Fri 06:14:00 AM 33.8203 112.2205 291° West  Level Estimated
Fri 06:15:00 AM 33.8576 112.1001 290° West  Level Estimated
Fri 06:16:00 AM 33.8948 111.9795 290° West  Level Estimated
Fri 06:17:00 AM 33.9318 111.8589 290° West  Level Estimated
Fri 06:18:00 AM 33.9688 111.7382 290° West  Level Estimated
Fri 06:19:00 AM 34.0056 111.6174 290° West  Level Estimated
Fri 06:20:00 AM 34.0423 111.4965 290° West  Level Estimated
Fri 06:21:00 AM 34.0788 111.3754 290° West  Level Estimated
Fri 06:22:00 AM 34.1153 111.2543 290° West  Level Estimated
Fri 06:23:00 AM 34.1516 111.1330 290° West  Level Estimated
Fri 06:24:00 AM 34.1879 111.0117 290° West  Level Estimated
Fri 06:25:00 AM 34.2240 110.8902 290° West  Level Estimated
Fri 06:26:00 AM 34.2599 110.7687 290° West  Level Estimated
Fri 06:27:00 AM 34.2958 110.6470 290° West  Level Estimated
Fri 06:28:00 AM 34.3316 110.5253 290° West  Level Estimated
Fri 06:29:00 AM 34.3672 110.4034 290° West  Level Estimated
Fri 06:30:00 AM 34.4027 110.2814 289° West  Level Estimated
Fri 06:31:00 AM 34.4380 110.1593 289° West  Level Estimated
Fri 06:32:00 AM 34.4733 110.0372 289° West  Level Estimated
Fri 06:33:00 AM 34.5084 109.9149 289° West  Level Estimated
Fri 06:34:00 AM 34.5435 109.7925 289° West  Level Estimated
Fri 06:35:00 AM 34.5784 109.6700 289° West  Level Estimated
Fri 06:36:00 AM 34.6131 109.5474 289° West  Level Estimated
Fri 06:37:00 AM 34.6478 109.4247 289° West  Level Estimated
Fri 06:38:00 AM 34.6823 109.3019 289° West  Level Estimated
Fri 06:39:00 AM 34.7167 109.1790 289° West  Level Estimated
Fri 06:40:00 AM 34.7510 109.0560 289° West  Level Estimated
Fri 06:41:00 AM 34.7851 108.9329 289° West  Level Estimated
Fri 06:42:00 AM 34.8191 108.8097 289° West  Level Estimated
Fri 06:43:00 AM 34.8531 108.6864 289° West  Level Estimated
Fri 06:44:00 AM 34.8868 108.5630 288° West  Level Estimated
Fri 06:45:00 AM 34.9205 108.4395 288° West  Level Estimated
Fri 06:46:00 AM 34.9540 108.3159 288° West  Level Estimated
Fri 06:47:00 AM 34.9874 108.1922 288° West  Level Estimated
Fri 06:48:00 AM 35.0207 108.0684 288° West  Level Estimated
Fri 06:49:00 AM 35.0538 107.9445 288° West  Level Estimated
Fri 06:50:00 AM 35.0869 107.8205 288° West  Level Estimated
Fri 06:51:00 AM 35.1198 107.6964 288° West  Level Estimated
Fri 06:52:00 AM 35.1526 107.5722 288° West  Level Estimated
Fri 06:53:00 AM 35.1852 107.4478 288° West  Level Estimated
Fri 06:54:00 AM 35.2177 107.3234 288° West  Level Estimated
Fri 06:55:00 AM 35.2501 107.1989 288° West  Level Estimated
Fri 06:56:00 AM 35.2824 107.0743 288° West  Level Estimated
Fri 06:57:00 AM 35.3145 106.9496 288° West  Level Estimated
Fri 06:58:00 AM 35.3465 106.8248 287° West  Level Estimated
Fri 06:59:00 AM 35.3784 106.6999 287° West  Level Estimated
Fri 07:00:00 AM 35.4102 106.5749 287° West  Level Estimated
Fri 07:01:00 AM 35.4418 106.4498 287° West  Level Estimated
Fri 07:02:00 AM 35.4733 106.3246 287° West  Level Estimated
Fri 07:03:00 AM 35.5047 106.1993 287° West  Level Estimated
Fri 07:04:00 AM 35.5359 106.0739 287° West  Level Estimated
Fri 07:05:00 AM 35.5670 105.9484 287° West  Level Estimated
Fri 07:06:00 AM 35.5980 105.8228 287° West  Level Estimated
Fri 07:07:00 AM 35.6288 105.6971 287° West  Level Estimated
Fri 07:08:00 AM 35.6595 105.5713 287° West  Level Estimated
Fri 07:09:00 AM 35.6901 105.4454 287° West  Level Estimated
Fri 07:10:00 AM 35.7206 105.3195 287° West  Level Estimated
Fri 07:11:00 AM 35.7509 105.1934 287° West  Level Estimated
Fri 07:12:00 AM 35.7811 105.0672 286° West  Level Estimated
Fri 07:13:00 AM 35.8111 104.9409 286° West  Level Estimated
Fri 07:14:00 AM 35.8410 104.8146 286° West  Level Estimated
Fri 07:15:00 AM 35.8708 104.6881 286° West  Level Estimated
Fri 07:16:00 AM 35.9007 104.5607 286° West  Level Estimated
Fri 07:17:00 AM 35.9304 104.4332 286° West  Level Estimated
Fri 07:18:00 AM 35.9600 104.3056 286° West  Level Estimated
Fri 07:19:00 AM 35.9895 104.1779 286° West  Level Estimated
Fri 07:20:00 AM 36.0188 104.0501 286° West  Level Estimated
Fri 07:21:00 AM 36.0480 103.9222 286° West  Level Estimated
Fri 07:22:00 AM 36.0770 103.7943 286° West  Level Estimated
Fri 07:23:00 AM 36.1059 103.6662 286° West  Level Estimated
Fri 07:24:00 AM 36.1170 103.6170 286° West  Level Estimated
Fri 07:25:00 AM 36.1170 103.6170 North  Level Estimated
Fri 07:26:00 AM 36.1170 103.6170 North  Level Estimated
Fri 07:27:00 AM 36.1170 103.6170 North  Level Estimated
Fri 07:28:00 AM 36.1170 103.6170 North  Level Estimated
Fri 07:29:00 AM 36.1170 103.6170 North  Level Estimated
Fri 07:30:00 AM 36.1170 103.6170 North  Level Estimated
Fri 07:31:00 AM 36.1170 103.6170 North  Level Estimated
Fri 07:32:00 AM 36.1170 103.6170 North  Level Estimated
Fri 07:33:00 AM 36.1170 103.6170 North  Level Estimated

Login

Don't have an account? Register now (free) for customized features, flight alerts, and more!